Time;durP1;ratioP1;P1;durP2;ratioP2;P2;SDS_P1;SDS_P2;PMS_P1;PMS_P2;Temp;Humidity;BMP_temperature;BMP_pressure;BME280_temperature;BME280_humidity;BME280_pressure;Samples;Min_cycle;Max_cycle;Signal;HPM_P1;HPM_P2
2023/08/02 00:00:32;;;;;;;4.78;1.60;;;;;;;;;;5032619;28;20017;-88
2023/08/02 00:02:58;;;;;;;4.60;1.30;;;;;;;;;;5032143;28;20139;-87
2023/08/02 00:05:25;;;;;;;13.77;2.05;;;;;;;;;;5033507;28;20014;-89
2023/08/02 00:07:51;;;;;;;5.97;2.00;;;;;;;;;;5033543;28;20049;-88
2023/08/02 00:10:16;;;;;;;7.75;1.70;;;;;;;;;;5032505;28;20537;-89
2023/08/02 00:12:41;;;;;;;5.28;1.42;;;;;;;;;;5032052;28;20396;-88
2023/08/02 00:15:07;;;;;;;5.90;1.33;;;;;;;;;;5033172;28;20101;-88
2023/08/02 00:17:32;;;;;;;6.53;2.00;;;;;;;;;;5032651;28;20385;-88
2023/08/02 00:19:57;;;;;;;5.32;1.48;;;;;;;;;;5032298;28;20354;-89
2023/08/02 00:22:23;;;;;;;7.68;1.70;;;;;;;;;;5032816;28;20035;-88
2023/08/02 00:24:48;;;;;;;4.38;1.73;;;;;;;;;;5032639;28;20021;-88
2023/08/02 00:27:16;;;;;;;7.13;1.70;;;;;;;;;;5032306;28;20033;-89
2023/08/02 00:29:41;;;;;;;8.43;1.63;;;;;;;;;;5032302;28;20053;-88
2023/08/02 00:32:06;;;;;;;5.05;1.52;;;;;;;;;;5031195;28;20026;-88
2023/08/02 00:34:32;;;;;;;6.93;2.03;;;;;;;;;;5032099;28;20478;-88
2023/08/02 00:36:57;;;;;;;5.47;1.48;;;;;;;;;;5032614;28;20018;-88
2023/08/02 00:39:22;;;;;;;7.10;2.00;;;;;;;;;;5031977;28;20028;-89
2023/08/02 00:41:48;;;;;;;5.78;1.42;;;;;;;;;;5031814;28;20025;-89
2023/08/02 00:44:13;;;;;;;4.15;1.55;;;;;;;;;;5033209;28;20496;-88
2023/08/02 00:46:38;;;;;;;4.47;1.63;;;;;;;;;;5029133;28;20173;-88
2023/08/02 00:49:03;;;;;;;4.80;1.60;;;;;;;;;;5023397;28;20081;-88
2023/08/02 00:51:32;;;;;;;4.53;1.65;;;;;;;;;;5031343;28;20022;-88
2023/08/02 00:54:02;;;;;;;6.63;1.88;;;;;;;;;;5033077;28;20018;-88
2023/08/02 00:56:27;;;;;;;8.68;1.70;;;;;;;;;;5032746;28;20400;-88
2023/08/02 00:58:53;;;;;;;5.30;1.70;;;;;;;;;;5032314;28;20021;-88
2023/08/02 01:01:18;;;;;;;5.30;2.00;;;;;;;;;;5031779;28;20060;-88
2023/08/02 01:03:46;;;;;;;5.95;2.20;;;;;;;;;;5032398;28;20119;-88
2023/08/02 01:06:17;;;;;;;3.33;1.40;;;;;;;;;;5032086;28;20041;-88
2023/08/02 01:08:44;;;;;;;6.53;2.05;;;;;;;;;;5032388;28;20041;-88
2023/08/02 01:11:15;;;;;;;4.00;1.50;;;;;;;;;;5031681;28;20021;-88
2023/08/02 01:13:45;;;;;;;5.82;1.65;;;;;;;;;;5031581;28;20112;-89
2023/08/02 01:16:14;;;;;;;6.97;1.52;;;;;;;;;;5032162;28;20025;-88
2023/08/02 01:18:39;;;;;;;9.27;2.00;;;;;;;;;;5032103;28;20021;-88
2023/08/02 01:21:05;;;;;;;4.72;1.50;;;;;;;;;;5032696;28;20124;-89
2023/08/02 01:23:30;;;;;;;8.18;1.45;;;;;;;;;;5031631;28;20079;-88
2023/08/02 01:25:56;;;;;;;10.55;2.47;;;;;;;;;;5031438;28;20052;-89
2023/08/02 01:28:23;;;;;;;3.72;1.60;;;;;;;;;;5031498;28;20032;-89
2023/08/02 01:30:49;;;;;;;4.43;1.88;;;;;;;;;;5030438;28;20481;-89
2023/08/02 01:33:14;;;;;;;4.45;1.33;;;;;;;;;;5031734;28;20013;-89
2023/08/02 01:35:42;;;;;;;6.78;1.63;;;;;;;;;;5031636;28;20041;-89
2023/08/02 01:38:07;;;;;;;5.75;1.50;;;;;;;;;;5030642;28;20026;-88
2023/08/02 01:40:33;;;;;;;5.20;1.52;;;;;;;;;;5031418;28;20024;-88
2023/08/02 01:43:00;;;;;;;4.30;1.67;;;;;;;;;;5031270;28;20018;-88
2023/08/02 01:45:26;;;;;;;8.20;1.58;;;;;;;;;;5032803;28;20586;-89
2023/08/02 01:47:51;;;;;;;4.32;1.50;;;;;;;;;;5029901;28;20128;-89
2023/08/02 01:50:17;;;;;;;4.90;1.73;;;;;;;;;;5031294;28;20087;-89
2023/08/02 01:52:48;;;;;;;2.42;1.00;;;;;;;;;;5031036;28;20091;-89
2023/08/02 01:55:14;;;;;;;4.97;1.60;;;;;;;;;;5031313;28;20433;-89
2023/08/02 01:57:39;;;;;;;3.60;1.65;;;;;;;;;;5031710;28;20029;-89
2023/08/02 02:00:05;;;;;;;3.22;1.60;;;;;;;;;;5032919;28;20022;-88
2023/08/02 02:02:30;;;;;;;7.32;1.75;;;;;;;;;;5022177;28;20033;-89
2023/08/02 02:04:55;;;;;;;3.25;1.20;;;;;;;;;;5034162;28;20046;-88
2023/08/02 02:07:20;;;;;;;8.32;1.60;;;;;;;;;;5029195;28;20038;-89
2023/08/02 02:09:46;;;;;;;4.93;1.63;;;;;;;;;;5023719;28;20029;-89
2023/08/02 02:12:11;;;;;;;4.30;2.03;;;;;;;;;;5042753;28;20017;-88
2023/08/02 02:14:36;;;;;;;3.90;1.40;;;;;;;;;;5054567;28;20033;-89
2023/08/02 02:17:02;;;;;;;7.63;2.08;;;;;;;;;;5043441;28;20115;-88
2023/08/02 02:19:27;;;;;;;3.42;1.85;;;;;;;;;;5053498;28;20087;-88
2023/08/02 02:21:53;;;;;;;3.97;1.83;;;;;;;;;;5065098;28;20064;-88
2023/08/02 02:24:18;;;;;;;5.45;1.35;;;;;;;;;;5031170;28;20025;-88
2023/08/02 02:26:43;;;;;;;4.75;1.73;;;;;;;;;;5039016;28;20029;-87
2023/08/02 02:29:09;;;;;;;7.10;2.30;;;;;;;;;;5067476;28;20033;-88
2023/08/02 02:31:34;;;;;;;3.92;2.08;;;;;;;;;;5048507;28;20017;-87
2023/08/02 02:33:59;;;;;;;5.55;2.30;;;;;;;;;;5030668;28;20120;-88
2023/08/02 02:36:24;;;;;;;4.20;1.90;;;;;;;;;;5031510;28;20014;-88
2023/08/02 02:38:50;;;;;;;4.85;1.80;;;;;;;;;;5041598;28;20017;-88
2023/08/02 02:41:15;;;;;;;4.03;1.67;;;;;;;;;;5054242;28;20025;-88
2023/08/02 02:43:40;;;;;;;4.63;1.83;;;;;;;;;;5041081;28;20032;-88
2023/08/02 02:46:05;;;;;;;3.40;1.75;;;;;;;;;;5054811;28;20131;-88
2023/08/02 02:48:33;;;;;;;7.95;1.90;;;;;;;;;;5025126;28;20453;-88
2023/08/02 02:51:02;;;;;;;6.20;1.70;;;;;;;;;;5034713;28;20021;-89
2023/08/02 02:53:30;;;;;;;8.20;2.40;;;;;;;;;;5033806;28;20018;-89
2023/08/02 02:55:56;;;;;;;7.00;1.95;;;;;;;;;;5035618;28;20440;-88
2023/08/02 02:58:24;;;;;;;5.25;2.05;;;;;;;;;;5034780;28;20029;-88
2023/08/02 03:00:49;;;;;;;3.42;1.90;;;;;;;;;;5070882;28;20051;-88
2023/08/02 03:03:14;;;;;;;4.28;1.65;;;;;;;;;;5058182;28;20033;-88
2023/08/02 03:05:40;;;;;;;5.90;1.55;;;;;;;;;;5060002;28;20160;-88
2023/08/02 03:08:05;;;;;;;4.82;1.92;;;;;;;;;;5044948;28;20163;-88
2023/08/02 03:10:30;;;;;;;4.15;1.70;;;;;;;;;;5037874;28;20021;-88
2023/08/02 03:12:55;;;;;;;2.42;1.35;;;;;;;;;;5057845;28;20499;-88
2023/08/02 03:15:21;;;;;;;4.47;1.25;;;;;;;;;;5020844;28;20100;-88
2023/08/02 03:17:46;;;;;;;4.20;1.63;;;;;;;;;;5069959;28;20102;-88
2023/08/02 03:20:11;;;;;;;3.20;1.63;;;;;;;;;;5057243;28;20029;-88
2023/08/02 03:22:38;;;;;;;5.63;2.10;;;;;;;;;;5058450;28;20031;-87
2023/08/02 03:25:03;;;;;;;4.65;1.85;;;;;;;;;;5033811;28;20515;-88
2023/08/02 03:27:28;;;;;;;4.40;1.77;;;;;;;;;;5040876;28;20025;-88
2023/08/02 03:29:54;;;;;;;6.22;2.15;;;;;;;;;;5020853;28;20049;-88
2023/08/02 03:32:22;;;;;;;4.93;1.58;;;;;;;;;;5033463;28;20032;-88
2023/08/02 03:34:47;;;;;;;4.88;1.60;;;;;;;;;;5033607;28;20021;-88
2023/08/02 03:37:15;;;;;;;5.65;2.20;;;;;;;;;;5033681;28;20503;-88
2023/08/02 03:39:40;;;;;;;6.47;1.50;;;;;;;;;;5033082;28;20121;-88
2023/08/02 03:42:06;;;;;;;4.85;1.80;;;;;;;;;;5033562;28;20104;-88
2023/08/02 03:44:34;;;;;;;5.05;1.92;;;;;;;;;;5033811;28;20029;-88
2023/08/02 03:47:00;;;;;;;1.00;0.70;;;;;;;;;;5033868;28;20025;-88
2023/08/02 03:49:25;;;;;;;3.50;1.55;;;;;;;;;;5033099;28;20018;-88
2023/08/02 03:51:50;;;;;;;3.17;1.27;;;;;;;;;;5032833;28;20026;-88
2023/08/02 03:54:18;;;;;;;4.15;1.83;;;;;;;;;;5034616;28;20030;-88
2023/08/02 03:56:46;;;;;;;3.15;1.58;;;;;;;;;;5047952;28;20017;-88
2023/08/02 03:59:11;;;;;;;5.20;2.10;;;;;;;;;;5033658;28;20029;-88
2023/08/02 04:01:36;;;;;;;3.47;2.22;;;;;;;;;;5063991;28;20032;-88
2023/08/02 04:04:01;;;;;;;5.78;1.67;;;;;;;;;;5037753;28;20485;-88
2023/08/02 04:06:27;;;;;;;6.60;1.95;;;;;;;;;;5033120;28;20037;-88
2023/08/02 04:08:52;;;;;;;5.13;1.98;;;;;;;;;;5040424;28;20490;-89
2023/08/02 04:11:17;;;;;;;4.28;2.13;;;;;;;;;;5028405;28;20018;-88
2023/08/02 04:13:43;;;;;;;3.05;1.60;;;;;;;;;;5048144;28;20432;-88
2023/08/02 04:16:08;;;;;;;3.90;1.83;;;;;;;;;;5066505;28;20013;-88
2023/08/02 04:18:36;;;;;;;3.40;1.67;;;;;;;;;;5034375;28;20112;-89
2023/08/02 04:21:01;;;;;;;8.13;1.88;;;;;;;;;;5053757;28;20029;-88
2023/08/02 04:23:26;;;;;;;8.13;2.30;;;;;;;;;;5069707;28;20027;-88
2023/08/02 04:25:52;;;;;;;4.93;1.80;;;;;;;;;;5064011;28;20534;-87
2023/08/02 04:28:17;;;;;;;4.13;1.90;;;;;;;;;;5023289;28;20069;-88
2023/08/02 04:30:42;;;;;;;2.53;1.63;;;;;;;;;;5059686;28;20033;-87
2023/08/02 04:33:11;;;;;;;4.50;1.83;;;;;;;;;;5040667;28;20098;-88
2023/08/02 04:35:39;;;;;;;3.55;1.83;;;;;;;;;;5069977;28;20017;-87
2023/08/02 04:38:04;;;;;;;8.65;2.20;;;;;;;;;;5038535;28;20081;-88
2023/08/02 04:40:29;;;;;;;3.45;1.52;;;;;;;;;;5058309;28;20095;-88
2023/08/02 04:43:00;;;;;;;3.40;1.60;;;;;;;;;;5033028;28;20104;-88
2023/08/02 04:45:27;;;;;;;6.13;1.88;;;;;;;;;;5043716;28;20405;-89
2023/08/02 04:47:55;;;;;;;3.03;1.50;;;;;;;;;;5050083;28;20045;-88
2023/08/02 04:50:20;;;;;;;3.72;1.30;;;;;;;;;;5047060;28;20032;-88
2023/08/02 04:52:45;;;;;;;6.93;1.80;;;;;;;;;;5055377;28;20437;-88
2023/08/02 04:55:11;;;;;;;8.30;2.13;;;;;;;;;;5038974;28;20012;-87
2023/08/02 04:57:36;;;;;;;3.67;1.92;;;;;;;;;;5031963;28;20087;-87
2023/08/02 05:00:01;;;;;;;6.65;1.98;;;;;;;;;;5032855;28;20063;-88
2023/08/02 05:02:33;;;;;;;3.95;1.30;;;;;;;;;;5040496;28;20445;-88
2023/08/02 05:05:02;;;;;;;9.40;2.08;;;;;;;;;;5056101;28;20029;-88
2023/08/02 05:07:27;;;;;;;5.90;1.55;;;;;;;;;;5032265;28;20030;-88
2023/08/02 05:09:52;;;;;;;3.60;1.70;;;;;;;;;;5034357;28;20041;-88
2023/08/02 05:12:18;;;;;;;3.47;1.77;;;;;;;;;;5032818;28;20029;-88
2023/08/02 05:14:46;;;;;;;4.35;1.67;;;;;;;;;;5032760;28;20021;-87
2023/08/02 05:17:11;;;;;;;3.15;1.85;;;;;;;;;;5033044;28;20025;-88
2023/08/02 05:19:36;;;;;;;4.97;1.70;;;;;;;;;;5042370;28;20028;-87
2023/08/02 05:22:02;;;;;;;4.57;1.48;;;;;;;;;;5055426;28;20078;-87
2023/08/02 05:24:27;;;;;;;5.20;1.80;;;;;;;;;;5040554;28;20713;-87
2023/08/02 05:26:53;;;;;;;4.13;1.58;;;;;;;;;;5055739;28;20029;-87
2023/08/02 05:29:18;;;;;;;3.13;1.77;;;;;;;;;;5035562;28;20017;-87
2023/08/02 05:31:43;;;;;;;4.35;1.40;;;;;;;;;;5058759;28;20025;-88
2023/08/02 05:34:08;;;;;;;2.17;1.48;;;;;;;;;;5032395;28;20180;-88
2023/08/02 05:36:34;;;;;;;4.88;1.95;;;;;;;;;;5038768;28;20103;-87
2023/08/02 05:38:59;;;;;;;3.33;1.65;;;;;;;;;;5069352;28;20041;-87
2023/08/02 05:41:24;;;;;;;4.43;2.05;;;;;;;;;;5049738;28;20032;-87
2023/08/02 05:43:52;;;;;;;3.33;1.42;;;;;;;;;;5043394;28;20017;-87
2023/08/02 05:46:17;;;;;;;4.18;1.58;;;;;;;;;;5050446;28;20021;-87
2023/08/02 05:48:43;;;;;;;3.92;1.38;;;;;;;;;;5040610;28;20114;-87
2023/08/02 05:51:09;;;;;;;5.07;1.73;;;;;;;;;;5057577;28;20519;-88
2023/08/02 05:53:37;;;;;;;3.08;1.23;;;;;;;;;;5051220;28;20139;-87
2023/08/02 05:56:02;;;;;;;2.05;1.10;;;;;;;;;;5057558;28;20120;-87
2023/08/02 05:58:33;;;;;;;3.45;1.30;;;;;;;;;;5046961;28;20045;-87
2023/08/02 06:00:58;;;;;;;3.33;1.00;;;;;;;;;;5031351;28;20404;-86
2023/08/02 06:03:23;;;;;;;3.30;1.52;;;;;;;;;;5046121;28;20017;-87
2023/08/02 06:05:48;;;;;;;3.53;1.20;;;;;;;;;;5030495;28;20029;-87
2023/08/02 06:08:17;;;;;;;3.47;1.90;;;;;;;;;;5031166;28;20029;-87
2023/08/02 06:10:42;;;;;;;2.20;1.08;;;;;;;;;;5031279;28;20021;-88
2023/08/02 06:13:07;;;;;;;1.77;1.40;;;;;;;;;;5041300;28;20283;-88
2023/08/02 06:15:33;;;;;;;1.60;0.98;;;;;;;;;;5065994;28;20021;-88
2023/08/02 06:17:58;;;;;;;2.22;1.15;;;;;;;;;;5034401;28;20445;-87
2023/08/02 06:20:23;;;;;;;2.90;1.65;;;;;;;;;;5050436;28;20043;-86
2023/08/02 06:22:49;;;;;;;2.30;1.30;;;;;;;;;;5067060;28;20617;-86
2023/08/02 06:25:14;;;;;;;2.40;1.33;;;;;;;;;;5046243;28;20021;-86
2023/08/02 06:27:39;;;;;;;1.80;1.00;;;;;;;;;;5041632;28;20397;-87
2023/08/02 06:30:05;;;;;;;4.03;1.00;;;;;;;;;;5059771;28;20076;-87
2023/08/02 06:32:30;;;;;;;3.47;1.25;;;;;;;;;;5031179;28;20014;-86
2023/08/02 06:34:55;;;;;;;1.55;0.95;;;;;;;;;;5034577;28;20883;-87
2023/08/02 06:37:21;;;;;;;4.38;1.05;;;;;;;;;;5034387;28;20022;-86
2023/08/02 06:39:46;;;;;;;2.05;1.08;;;;;;;;;;5035333;28;20083;-86
2023/08/02 06:42:14;;;;;;;3.72;0.90;;;;;;;;;;5034492;28;20053;-86
2023/08/02 06:44:40;;;;;;;1.63;0.75;;;;;;;;;;5034955;28;20033;-86
2023/08/02 06:47:05;;;;;;;2.42;0.93;;;;;;;;;;5035567;28;20033;-86
2023/08/02 06:49:33;;;;;;;1.63;0.65;;;;;;;;;;5035962;28;20029;-87
2023/08/02 06:51:58;;;;;;;2.47;0.80;;;;;;;;;;5058367;28;20087;-85
2023/08/02 06:54:23;;;;;;;0.80;0.43;;;;;;;;;;5034703;28;20017;-86
2023/08/02 06:56:49;;;;;;;1.98;0.60;;;;;;;;;;5034255;28;20022;-86
2023/08/02 06:59:14;;;;;;;1.40;0.60;;;;;;;;;;5031972;28;20115;-86
2023/08/02 07:01:39;;;;;;;0.85;0.70;;;;;;;;;;5042232;28;20049;-86
2023/08/02 07:04:05;;;;;;;1.75;0.70;;;;;;;;;;5050775;28;20013;-87
2023/08/02 07:06:30;;;;;;;1.05;0.40;;;;;;;;;;5052096;28;20029;-87
2023/08/02 07:08:56;;;;;;;1.90;0.68;;;;;;;;;;5033665;28;20021;-87
2023/08/02 07:11:22;;;;;;;1.77;0.63;;;;;;;;;;5033945;28;20376;-86
2023/08/02 07:13:47;;;;;;;1.38;0.60;;;;;;;;;;5033433;28;20330;-86
2023/08/02 07:16:15;;;;;;;1.40;0.40;;;;;;;;;;5034018;28;20463;-86
2023/08/02 07:18:40;;;;;;;0.45;0.30;;;;;;;;;;5031498;28;20018;-86
2023/08/02 07:21:09;;;;;;;0.43;0.40;;;;;;;;;;5030108;28;20024;-86
2023/08/02 07:23:35;;;;;;;0.60;0.30;;;;;;;;;;5033643;28;20079;-86
2023/08/02 07:26:00;;;;;;;0.40;0.40;;;;;;;;;;5035096;28;20017;-86
2023/08/02 07:28:26;;;;;;;0.77;0.38;;;;;;;;;;5033899;28;20085;-87
2023/08/02 07:30:51;;;;;;;1.92;0.60;;;;;;;;;;5032562;28;20033;-87
2023/08/02 07:33:16;;;;;;;0.60;0.32;;;;;;;;;;5035481;28;20018;-87
2023/08/02 07:35:42;;;;;;;0.45;0.30;;;;;;;;;;5033505;28;20017;-86
2023/08/02 07:38:07;;;;;;;0.85;0.32;;;;;;;;;;5033508;28;20049;-87
2023/08/02 07:40:32;;;;;;;6.43;0.52;;;;;;;;;;5027306;28;20018;-87
2023/08/02 07:42:57;;;;;;;3.42;0.45;;;;;;;;;;5032375;28;20396;-87
2023/08/02 07:45:23;;;;;;;0.50;0.38;;;;;;;;;;5028674;28;20052;-87
2023/08/02 07:47:48;;;;;;;0.43;0.40;;;;;;;;;;5033187;28;20085;-87
2023/08/02 07:50:14;;;;;;;0.32;0.32;;;;;;;;;;5034805;28;20028;-85
2023/08/02 07:52:39;;;;;;;1.38;0.40;;;;;;;;;;5031577;28;20033;-87
2023/08/02 07:55:05;;;;;;;0.20;0.20;;;;;;;;;;5028346;28;20374;-87
2023/08/02 07:57:31;;;;;;;0.50;0.30;;;;;;;;;;5033636;28;20477;-86
2023/08/02 07:59:57;;;;;;;0.30;0.30;;;;;;;;;;5035827;28;20021;-87
2023/08/02 08:02:22;;;;;;;3.13;0.40;;;;;;;;;;5033745;28;20760;-85
2023/08/02 08:04:48;;;;;;;0.45;0.30;;;;;;;;;;5035247;28;20030;-91
2023/08/02 08:07:13;;;;;;;0.40;0.40;;;;;;;;;;5038454;28;20037;-90
2023/08/02 08:09:39;;;;;;;1.45;0.30;;;;;;;;;;5036686;28;20391;-91
2023/08/02 08:12:05;;;;;;;0.75;0.35;;;;;;;;;;5035297;28;20464;-92
2023/08/02 08:14:31;;;;;;;0.30;0.30;;;;;;;;;;5034631;28;20010;-91
2023/08/02 08:16:58;;;;;;;1.65;0.52;;;;;;;;;;5050310;28;20084;-92
2023/08/02 08:19:23;;;;;;;6.13;0.38;;;;;;;;;;5041035;28;20021;-92
2023/08/02 08:21:48;;;;;;;0.50;0.30;;;;;;;;;;5059516;28;20024;-92
2023/08/02 08:24:13;;;;;;;0.60;0.30;;;;;;;;;;5032254;28;20158;-91
2023/08/02 08:26:39;;;;;;;0.85;0.40;;;;;;;;;;5031471;28;20072;-93
2023/08/02 08:29:04;;;;;;;2.13;0.30;;;;;;;;;;5033343;28;20025;-95
2023/08/02 08:31:29;;;;;;;2.25;0.45;;;;;;;;;;5035584;28;20022;-90
2023/08/02 08:33:55;;;;;;;0.38;0.38;;;;;;;;;;5037488;28;20021;-95
2023/08/02 08:36:21;;;;;;;0.63;0.40;;;;;;;;;;5035337;28;20149;-92
2023/08/02 08:38:46;;;;;;;0.63;0.45;;;;;;;;;;5030840;28;20091;-94
2023/08/02 08:41:13;;;;;;;0.13;0.13;;;;;;;;;;5032167;28;20476;-94
2023/08/02 08:43:39;;;;;;;0.45;0.22;;;;;;;;;;5043280;28;20373;-94
2023/08/02 08:46:10;;;;;;;0.63;0.30;;;;;;;;;;5054292;28;20021;-94
2023/08/02 08:48:37;;;;;;;0.63;0.40;;;;;;;;;;5032800;28;20357;-95
2023/08/02 08:51:03;;;;;;;0.05;0.00;;;;;;;;;;5032158;28;20393;-94
2023/08/02 08:53:32;;;;;;;0.17;0.10;;;;;;;;;;5032837;28;20033;-93
2023/08/02 08:55:58;;;;;;;0.32;0.20;;;;;;;;;;5032007;28;20043;-94
2023/08/02 08:58:24;;;;;;;0.50;0.30;;;;;;;;;;5035993;28;20028;-93
2023/08/02 09:00:49;;;;;;;0.25;0.20;;;;;;;;;;5032320;28;20021;-94
2023/08/02 09:03:15;;;;;;;0.40;0.20;;;;;;;;;;5037822;28;20021;-94
2023/08/02 09:05:40;;;;;;;0.30;0.30;;;;;;;;;;5032451;28;20033;-94
2023/08/02 09:08:06;;;;;;;0.50;0.40;;;;;;;;;;5032521;28;20031;-94
2023/08/02 09:10:32;;;;;;;0.40;0.30;;;;;;;;;;5032288;28;20108;-95
2023/08/02 09:12:57;;;;;;;1.27;0.22;;;;;;;;;;5032896;28;20125;-94
2023/08/02 09:15:24;;;;;;;0.60;0.30;;;;;;;;;;5033955;28;20049;-94
2023/08/02 09:17:53;;;;;;;0.40;0.30;;;;;;;;;;5032024;28;20444;-94
2023/08/02 09:20:20;;;;;;;0.70;0.32;;;;;;;;;;5030444;28;20048;-93
2023/08/02 09:22:45;;;;;;;0.40;0.40;;;;;;;;;;5026765;28;20028;-94
2023/08/02 09:25:22;;;;;;;0.43;0.38;;;;;;;;;;5034818;28;20022;-88
2023/08/02 09:27:49;;;;;;;0.90;0.68;;;;;;;;;;5033217;28;20022;-90
2023/08/02 09:30:24;;;;;;;1.17;0.52;;;;;;;;;;5030987;28;20017;-91
2023/08/02 09:33:09;;;;;;;1.98;0.70;;;;;;;;;;5032270;28;20025;-91
2023/08/02 09:35:55;;;;;;;0.70;0.63;;;;;;;;;;5027120;28;20037;-91
2023/08/02 09:38:20;;;;;;;1.38;1.05;;;;;;;;;;5034159;28;20089;-90
2023/08/02 09:40:48;;;;;;;0.98;0.80;;;;;;;;;;5031678;28;20049;-89
2023/08/02 09:43:18;;;;;;;0.80;0.60;;;;;;;;;;5033268;28;20032;-90
2023/08/02 09:45:44;;;;;;;1.05;0.60;;;;;;;;;;5029694;28;20021;-90
2023/08/02 09:48:09;;;;;;;1.02;0.90;;;;;;;;;;5031693;28;20028;-90
2023/08/02 09:50:50;;;;;;;0.93;0.82;;;;;;;;;;5034119;28;20499;-88
2023/08/02 09:53:16;;;;;;;4.22;0.70;;;;;;;;;;5035591;28;20028;-89
2023/08/02 09:55:43;;;;;;;1.00;0.70;;;;;;;;;;5034589;28;20120;-88
2023/08/02 09:58:09;;;;;;;0.80;0.60;;;;;;;;;;5039435;28;20037;-88
2023/08/02 10:00:35;;;;;;;1.95;0.70;;;;;;;;;;5044639;28;20111;-88
2023/08/02 10:03:00;;;;;;;3.42;0.70;;;;;;;;;;5061248;28;20049;-88
2023/08/02 10:05:26;;;;;;;0.70;0.65;;;;;;;;;;5042001;28;20421;-88
2023/08/02 10:07:52;;;;;;;1.35;0.80;;;;;;;;;;5035098;28;20067;-87
2023/08/02 10:10:34;;;;;;;1.42;0.80;;;;;;;;;;5043752;28;20020;-87
2023/08/02 10:13:12;;;;;;;2.15;0.77;;;;;;;;;;5035292;28;20017;-87
2023/08/02 10:15:40;;;;;;;1.40;0.50;;;;;;;;;;5033692;28;20034;-87
2023/08/02 10:18:10;;;;;;;2.45;0.65;;;;;;;;;;5044302;28;20024;-85
2023/08/02 10:20:36;;;;;;;0.70;0.50;;;;;;;;;;5057385;28;20376;-87
2023/08/02 10:23:05;;;;;;;1.52;0.52;;;;;;;;;;5071327;28;20041;-87
2023/08/02 10:25:37;;;;;;;0.75;0.60;;;;;;;;;;5065388;28;20092;-86
2023/08/02 10:28:02;;;;;;;0.73;0.60;;;;;;;;;;5034321;28;20400;-88
2023/08/02 10:30:29;;;;;;;1.55;0.52;;;;;;;;;;5034855;28;20035;-87
2023/08/02 10:33:14;;;;;;;4.13;0.63;;;;;;;;;;5033824;28;20875;-87
2023/08/02 10:35:54;;;;;;;0.70;0.60;;;;;;;;;;5034203;28;20037;-87
2023/08/02 10:38:24;;;;;;;0.88;0.65;;;;;;;;;;5031803;28;20036;-88
2023/08/02 10:41:06;;;;;;;2.35;0.70;;;;;;;;;;5033867;28;20400;-87
2023/08/02 10:43:31;;;;;;;1.95;0.70;;;;;;;;;;5078094;28;20135;-86
2023/08/02 10:46:16;;;;;;;0.55;0.55;;;;;;;;;;5055993;28;20061;-87
2023/08/02 10:48:41;;;;;;;1.90;0.70;;;;;;;;;;5025406;28;20066;-87
2023/08/02 10:51:27;;;;;;;2.22;0.75;;;;;;;;;;5034005;28;20056;-87
2023/08/02 10:54:11;;;;;;;1.30;0.80;;;;;;;;;;5045809;28;20022;-86
2023/08/02 10:56:52;;;;;;;3.17;1.00;;;;;;;;;;5043419;28;20036;-88
2023/08/02 10:59:30;;;;;;;4.18;1.10;;;;;;;;;;5064689;28;20052;-88
2023/08/02 11:02:05;;;;;;;0.85;0.45;;;;;;;;;;5062271;28;20021;-87
2023/08/02 11:04:31;;;;;;;8.98;1.17;;;;;;;;;;5041104;28;20017;-87
2023/08/02 11:07:13;;;;;;;3.05;1.10;;;;;;;;;;5041519;28;20035;-88
2023/08/02 11:09:38;;;;;;;5.05;1.10;;;;;;;;;;5041462;28;20136;-88
2023/08/02 11:12:13;;;;;;;5.60;1.75;;;;;;;;;;5045775;28;20018;-88
2023/08/02 11:14:39;;;;;;;7.00;2.10;;;;;;;;;;5064285;28;20022;-88
2023/08/02 11:17:05;;;;;;;6.90;1.63;;;;;;;;;;5036548;28;20018;-88
2023/08/02 11:19:31;;;;;;;5.20;1.50;;;;;;;;;;5050826;28;20044;-88
2023/08/02 11:21:56;;;;;;;7.00;1.58;;;;;;;;;;5033903;28;20029;-88
2023/08/02 11:24:22;;;;;;;7.07;1.40;;;;;;;;;;5034189;28;20524;-89
2023/08/02 11:26:57;;;;;;;3.20;1.25;;;;;;;;;;5034791;28;20021;-88
2023/08/02 11:29:23;;;;;;;9.35;1.20;;;;;;;;;;5037450;28;20556;-87
2023/08/02 11:31:49;;;;;;;6.82;1.25;;;;;;;;;;5061530;28;20025;-87
2023/08/02 11:34:18;;;;;;;5.25;1.40;;;;;;;;;;5040022;28;20026;-88
2023/08/02 11:36:47;;;;;;;6.35;1.13;;;;;;;;;;5062720;28;20037;-88
2023/08/02 11:39:17;;;;;;;6.07;1.13;;;;;;;;;;5037661;28;20060;-88
2023/08/02 11:41:42;;;;;;;6.50;1.05;;;;;;;;;;5033189;28;20033;-87
2023/08/02 11:44:17;;;;;;;3.88;0.90;;;;;;;;;;5032223;28;20025;-88
2023/08/02 11:46:43;;;;;;;2.95;0.70;;;;;;;;;;5032767;28;20021;-89
2023/08/02 11:49:09;;;;;;;4.95;1.10;;;;;;;;;;5063807;28;20277;-88
2023/08/02 11:51:44;;;;;;;5.10;1.33;;;;;;;;;;5035212;28;20060;-88
2023/08/02 11:54:09;;;;;;;5.82;1.42;;;;;;;;;;5027728;28;20017;-88
2023/08/02 11:56:38;;;;;;;9.23;1.40;;;;;;;;;;5027840;28;20380;-89
2023/08/02 11:59:04;;;;;;;6.95;1.10;;;;;;;;;;5047622;28;20029;-89
2023/08/02 12:01:29;;;;;;;7.10;1.38;;;;;;;;;;5031748;28;20054;-89
2023/08/02 12:03:54;;;;;;;2.75;1.00;;;;;;;;;;5043513;28;20132;-89
2023/08/02 12:06:27;;;;;;;8.50;1.10;;;;;;;;;;5023859;28;20530;-89
2023/08/02 12:08:56;;;;;;;3.90;1.05;;;;;;;;;;5027196;28;20120;-89
2023/08/02 12:11:23;;;;;;;4.40;1.00;;;;;;;;;;5057259;28;20017;-89
2023/08/02 12:13:48;;;;;;;4.20;1.48;;;;;;;;;;5056590;28;20025;-89
2023/08/02 12:16:15;;;;;;;4.80;1.02;;;;;;;;;;5033908;28;20083;-89
2023/08/02 12:19:01;;;;;;;8.00;1.02;;;;;;;;;;5031814;28;20483;-88
2023/08/02 12:21:26;;;;;;;4.82;1.25;;;;;;;;;;5031101;28;20538;-86
2023/08/02 12:23:52;;;;;;;4.57;0.88;;;;;;;;;;5032235;28;20059;-89
2023/08/02 12:26:31;;;;;;;1.60;0.63;;;;;;;;;;5033920;28;20534;-87
2023/08/02 12:28:57;;;;;;;5.93;0.80;;;;;;;;;;5029941;28;20567;-89
2023/08/02 12:31:22;;;;;;;4.05;0.60;;;;;;;;;;5031260;28;20124;-88
2023/08/02 12:33:48;;;;;;;5.28;1.00;;;;;;;;;;5034172;28;20056;-89
2023/08/02 12:36:24;;;;;;;9.85;0.90;;;;;;;;;;5030976;28;20032;-86
2023/08/02 12:38:52;;;;;;;7.60;1.13;;;;;;;;;;5030779;28;20412;-88
2023/08/02 12:41:22;;;;;;;5.68;0.82;;;;;;;;;;5036614;28;20092;-88
2023/08/02 12:43:48;;;;;;;3.63;0.87;;;;;;;;;;5033700;28;20025;-88
2023/08/02 12:46:14;;;;;;;4.97;0.50;;;;;;;;;;5033816;28;20269;-88
2023/08/02 12:48:40;;;;;;;2.80;0.60;;;;;;;;;;5030247;28;20036;-87
2023/08/02 12:51:05;;;;;;;2.60;0.55;;;;;;;;;;5032039;28;20026;-88
2023/08/02 12:53:30;;;;;;;4.28;0.82;;;;;;;;;;5032398;28;20048;-87
2023/08/02 12:55:56;;;;;;;6.97;0.82;;;;;;;;;;5037560;28;20536;-87
2023/08/02 12:58:21;;;;;;;4.28;0.73;;;;;;;;;;5030354;28;20017;-88
2023/08/02 13:00:46;;;;;;;2.50;0.70;;;;;;;;;;5031651;28;20037;-87
2023/08/02 13:03:12;;;;;;;4.78;0.52;;;;;;;;;;5031604;28;20029;-89
2023/08/02 13:05:37;;;;;;;2.20;0.70;;;;;;;;;;5034707;28;20025;-88
2023/08/02 13:08:03;;;;;;;3.40;1.05;;;;;;;;;;5048493;28;20057;-87
2023/08/02 13:10:30;;;;;;;2.65;0.55;;;;;;;;;;5031133;28;20045;-88
2023/08/02 13:12:56;;;;;;;4.03;0.52;;;;;;;;;;5038768;28;20028;-88
2023/08/02 13:15:23;;;;;;;4.78;0.90;;;;;;;;;;5043538;28;20109;-88
2023/08/02 13:17:49;;;;;;;5.68;0.60;;;;;;;;;;5038277;28;20025;-86
2023/08/02 13:20:14;;;;;;;3.53;0.60;;;;;;;;;;5039842;28;20056;-87
2023/08/02 13:22:43;;;;;;;2.60;0.63;;;;;;;;;;5031930;28;20033;-89
2023/08/02 13:25:09;;;;;;;2.85;0.50;;;;;;;;;;5029252;28;20378;-87
2023/08/02 13:27:35;;;;;;;2.63;0.47;;;;;;;;;;5029590;28;20021;-87
2023/08/02 13:30:01;;;;;;;4.30;0.65;;;;;;;;;;5030947;28;20461;-87
2023/08/02 13:32:26;;;;;;;5.10;0.73;;;;;;;;;;5046205;28;20491;-86
2023/08/02 13:34:52;;;;;;;2.45;0.52;;;;;;;;;;5052364;28;20017;-88
2023/08/02 13:37:17;;;;;;;4.03;0.73;;;;;;;;;;5052375;28;20017;-86
2023/08/02 13:39:43;;;;;;;1.67;0.50;;;;;;;;;;5037645;28;20045;-86
2023/08/02 13:42:08;;;;;;;1.65;0.40;;;;;;;;;;5067557;28;20112;-86
2023/08/02 13:44:34;;;;;;;2.05;0.40;;;;;;;;;;5043746;28;20111;-87
2023/08/02 13:46:59;;;;;;;4.22;0.63;;;;;;;;;;5047791;28;20021;-86
2023/08/02 13:49:25;;;;;;;1.73;0.30;;;;;;;;;;5043096;28;20045;-86
2023/08/02 13:51:52;;;;;;;3.05;0.40;;;;;;;;;;5039323;28;20032;-85
2023/08/02 13:54:18;;;;;;;2.55;0.45;;;;;;;;;;5033485;28;20404;-86
2023/08/02 13:56:43;;;;;;;0.70;0.20;;;;;;;;;;5051687;28;20021;-87
2023/08/02 13:59:09;;;;;;;2.08;0.30;;;;;;;;;;5068969;28;20021;-86
2023/08/02 14:01:34;;;;;;;2.85;0.38;;;;;;;;;;5068903;28;20048;-86
2023/08/02 14:04:04;;;;;;;1.05;0.30;;;;;;;;;;5036176;28;20434;-86
2023/08/02 14:06:30;;;;;;;2.13;0.40;;;;;;;;;;5045384;28;20017;-85
2023/08/02 14:08:58;;;;;;;3.03;0.50;;;;;;;;;;5053115;28;20017;-85
2023/08/02 14:11:23;;;;;;;1.80;0.30;;;;;;;;;;5044043;28;20013;-86
2023/08/02 14:13:49;;;;;;;1.63;0.50;;;;;;;;;;5051414;28;20029;-86
2023/08/02 14:16:14;;;;;;;2.80;0.52;;;;;;;;;;5032761;28;20045;-86
2023/08/02 14:18:39;;;;;;;2.05;0.30;;;;;;;;;;5032832;28;20399;-87
2023/08/02 14:21:05;;;;;;;4.72;0.77;;;;;;;;;;5033684;28;20396;-87
2023/08/02 14:23:32;;;;;;;2.00;0.60;;;;;;;;;;5034056;28;20124;-87
2023/08/02 14:25:57;;;;;;;1.60;0.40;;;;;;;;;;5046251;28;20433;-86
2023/08/02 14:28:25;;;;;;;1.95;0.60;;;;;;;;;;5035920;28;20039;-87
2023/08/02 14:30:53;;;;;;;2.05;0.52;;;;;;;;;;5043611;28;20079;-87
2023/08/02 14:33:18;;;;;;;4.72;0.40;;;;;;;;;;5031510;28;20021;-86
2023/08/02 14:35:46;;;;;;;4.53;0.40;;;;;;;;;;5030734;28;20079;-87
2023/08/02 14:38:14;;;;;;;2.63;0.40;;;;;;;;;;5041104;28;20016;-86
2023/08/02 14:40:39;;;;;;;0.60;0.20;;;;;;;;;;5056998;28;20029;-86